sensor_id;sensor_type;location;lat;lon;timestamp;P1;durP1;ratioP1;P2;durP2;ratioP2
76550;SDS011;65393;53.160;18.170;2023-01-01T00:01:27;12.10;;;6.30;;
76550;SDS011;65393;53.160;18.170;2023-01-01T00:03:57;11.40;;;6.70;;
76550;SDS011;65393;53.160;18.170;2023-01-01T00:06:25;13.60;;;7.10;;
76550;SDS011;65393;53.160;18.170;2023-01-01T00:08:52;11.60;;;6.50;;
76550;SDS011;65393;53.160;18.170;2023-01-01T00:11:38;10.90;;;6.00;;
76550;SDS011;65393;53.160;18.170;2023-01-01T00:14:05;14.00;;;6.90;;
76550;SDS011;65393;53.160;18.170;2023-01-01T00:16:32;11.60;;;5.70;;
76550;SDS011;65393;53.160;18.170;2023-01-01T00:18:59;12.00;;;5.40;;
76550;SDS011;65393;53.160;18.170;2023-01-01T00:21:25;9.40;;;5.10;;
76550;SDS011;65393;53.160;18.170;2023-01-01T00:23:52;7.30;;;4.20;;
76550;SDS011;65393;53.160;18.170;2023-01-01T00:26:19;9.50;;;4.70;;
76550;SDS011;65393;53.160;18.170;2023-01-01T00:28:45;8.90;;;4.10;;
76550;SDS011;65393;53.160;18.170;2023-01-01T00:31:14;8.60;;;4.00;;
76550;SDS011;65393;53.160;18.170;2023-01-01T00:33:43;6.60;;;3.40;;
76550;SDS011;65393;53.160;18.170;2023-01-01T00:36:11;7.90;;;3.90;;
76550;SDS011;65393;53.160;18.170;2023-01-01T00:38:39;5.60;;;3.60;;
76550;SDS011;65393;53.160;18.170;2023-01-01T00:41:07;6.60;;;3.80;;
76550;SDS011;65393;53.160;18.170;2023-01-01T00:43:35;7.00;;;3.10;;
76550;SDS011;65393;53.160;18.170;2023-01-01T00:46:02;8.00;;;3.60;;
76550;SDS011;65393;53.160;18.170;2023-01-01T00:48:30;8.00;;;4.10;;
76550;SDS011;65393;53.160;18.170;2023-01-01T00:50:57;7.10;;;3.50;;
76550;SDS011;65393;53.160;18.170;2023-01-01T00:53:24;6.10;;;2.90;;
76550;SDS011;65393;53.160;18.170;2023-01-01T00:55:50;8.10;;;3.70;;
76550;SDS011;65393;53.160;18.170;2023-01-01T00:58:17;5.90;;;3.60;;
76550;SDS011;65393;53.160;18.170;2023-01-01T01:00:45;5.30;;;3.10;;
76550;SDS011;65393;53.160;18.170;2023-01-01T01:03:12;5.90;;;3.10;;
76550;SDS011;65393;53.160;18.170;2023-01-01T01:05:57;7.60;;;3.90;;
76550;SDS011;65393;53.160;18.170;2023-01-01T01:08:27;6.80;;;3.50;;
76550;SDS011;65393;53.160;18.170;2023-01-01T01:11:03;8.50;;;3.90;;
76550;SDS011;65393;53.160;18.170;2023-01-01T01:13:59;5.30;;;2.80;;
76550;SDS011;65393;53.160;18.170;2023-01-01T01:16:27;7.90;;;3.80;;
76550;SDS011;65393;53.160;18.170;2023-01-01T01:18:57;6.80;;;3.30;;
76550;SDS011;65393;53.160;18.170;2023-01-01T01:21:27;6.80;;;3.60;;
76550;SDS011;65393;53.160;18.170;2023-01-01T01:23:58;7.60;;;3.40;;
76550;SDS011;65393;53.160;18.170;2023-01-01T01:26:28;6.00;;;3.20;;
76550;SDS011;65393;53.160;18.170;2023-01-01T01:28:57;9.50;;;4.30;;
76550;SDS011;65393;53.160;18.170;2023-01-01T01:31:25;8.50;;;3.90;;
76550;SDS011;65393;53.160;18.170;2023-01-01T01:33:54;9.80;;;4.60;;
76550;SDS011;65393;53.160;18.170;2023-01-01T01:36:21;8.80;;;4.20;;
76550;SDS011;65393;53.160;18.170;2023-01-01T01:38:48;7.00;;;4.20;;
76550;SDS011;65393;53.160;18.170;2023-01-01T01:41:16;8.30;;;4.50;;
76550;SDS011;65393;53.160;18.170;2023-01-01T01:43:52;9.40;;;5.10;;
76550;SDS011;65393;53.160;18.170;2023-01-01T01:46:40;10.10;;;4.90;;
76550;SDS011;65393;53.160;18.170;2023-01-01T01:49:29;9.20;;;5.90;;
76550;SDS011;65393;53.160;18.170;2023-01-01T01:51:57;8.50;;;5.10;;
76550;SDS011;65393;53.160;18.170;2023-01-01T01:54:26;9.60;;;5.20;;
76550;SDS011;65393;53.160;18.170;2023-01-01T01:56:54;7.70;;;4.80;;
76550;SDS011;65393;53.160;18.170;2023-01-01T01:59:26;11.20;;;5.30;;
76550;SDS011;65393;53.160;18.170;2023-01-01T02:01:59;11.10;;;5.10;;
76550;SDS011;65393;53.160;18.170;2023-01-01T02:04:26;8.00;;;4.50;;
76550;SDS011;65393;53.160;18.170;2023-01-01T02:06:54;13.80;;;5.20;;
76550;SDS011;65393;53.160;18.170;2023-01-01T02:09:21;7.80;;;4.30;;
76550;SDS011;65393;53.160;18.170;2023-01-01T02:11:48;6.40;;;4.30;;
76550;SDS011;65393;53.160;18.170;2023-01-01T02:14:15;8.70;;;4.60;;
76550;SDS011;65393;53.160;18.170;2023-01-01T02:16:42;8.60;;;4.50;;
76550;SDS011;65393;53.160;18.170;2023-01-01T02:22:25;8.50;;;4.70;;
76550;SDS011;65393;53.160;18.170;2023-01-01T02:30:40;6.70;;;3.50;;
76550;SDS011;65393;53.160;18.170;2023-01-01T02:33:12;9.00;;;4.70;;
76550;SDS011;65393;53.160;18.170;2023-01-01T02:35:48;8.00;;;4.20;;
76550;SDS011;65393;53.160;18.170;2023-01-01T02:40:55;6.70;;;3.60;;
76550;SDS011;65393;53.160;18.170;2023-01-01T02:43:25;5.70;;;3.10;;
76550;SDS011;65393;53.160;18.170;2023-01-01T02:45:52;6.30;;;3.40;;
76550;SDS011;65393;53.160;18.170;2023-01-01T02:51:20;5.60;;;3.10;;
76550;SDS011;65393;53.160;18.170;2023-01-01T02:59:32;5.20;;;2.40;;
76550;SDS011;65393;53.160;18.170;2023-01-01T03:05:39;5.00;;;2.70;;
76550;SDS011;65393;53.160;18.170;2023-01-01T03:08:48;3.70;;;2.40;;
76550;SDS011;65393;53.160;18.170;2023-01-01T03:11:21;3.90;;;2.30;;
76550;SDS011;65393;53.160;18.170;2023-01-01T03:16:26;5.60;;;2.20;;
76550;SDS011;65393;53.160;18.170;2023-01-01T03:22:01;3.40;;;2.10;;
76550;SDS011;65393;53.160;18.170;2023-01-01T03:24:42;4.80;;;2.20;;
76550;SDS011;65393;53.160;18.170;2023-01-01T03:27:21;5.00;;;2.30;;
76550;SDS011;65393;53.160;18.170;2023-01-01T03:29:51;5.20;;;2.10;;
76550;SDS011;65393;53.160;18.170;2023-01-01T03:32:26;4.70;;;2.30;;
76550;SDS011;65393;53.160;18.170;2023-01-01T03:35:20;4.10;;;2.30;;
76550;SDS011;65393;53.160;18.170;2023-01-01T03:37:52;4.60;;;1.90;;
76550;SDS011;65393;53.160;18.170;2023-01-01T03:40:23;4.90;;;2.00;;
76550;SDS011;65393;53.160;18.170;2023-01-01T03:42:54;5.70;;;2.50;;
76550;SDS011;65393;53.160;18.170;2023-01-01T03:45:32;4.30;;;2.20;;
76550;SDS011;65393;53.160;18.170;2023-01-01T03:48:03;4.20;;;2.20;;
76550;SDS011;65393;53.160;18.170;2023-01-01T03:50:36;4.80;;;2.30;;
76550;SDS011;65393;53.160;18.170;2023-01-01T03:53:40;5.30;;;2.10;;
76550;SDS011;65393;53.160;18.170;2023-01-01T03:56:18;3.90;;;2.10;;
76550;SDS011;65393;53.160;18.170;2023-01-01T03:58:53;4.00;;;2.10;;
76550;SDS011;65393;53.160;18.170;2023-01-01T04:01:35;6.00;;;2.10;;
76550;SDS011;65393;53.160;18.170;2023-01-01T04:04:12;4.30;;;1.80;;
76550;SDS011;65393;53.160;18.170;2023-01-01T04:06:41;5.50;;;2.00;;
76550;SDS011;65393;53.160;18.170;2023-01-01T04:09:11;4.00;;;1.80;;
76550;SDS011;65393;53.160;18.170;2023-01-01T04:11:43;7.50;;;2.30;;
76550;SDS011;65393;53.160;18.170;2023-01-01T04:16:59;6.10;;;2.00;;
76550;SDS011;65393;53.160;18.170;2023-01-01T04:19:26;7.30;;;2.20;;
76550;SDS011;65393;53.160;18.170;2023-01-01T04:21:54;3.20;;;1.70;;
76550;SDS011;65393;53.160;18.170;2023-01-01T04:24:21;5.20;;;2.10;;
76550;SDS011;65393;53.160;18.170;2023-01-01T04:26:49;6.40;;;2.30;;
76550;SDS011;65393;53.160;18.170;2023-01-01T04:29:17;4.50;;;2.10;;
76550;SDS011;65393;53.160;18.170;2023-01-01T04:31:45;2.70;;;1.50;;
76550;SDS011;65393;53.160;18.170;2023-01-01T04:34:12;5.00;;;2.60;;
76550;SDS011;65393;53.160;18.170;2023-01-01T04:36:39;7.00;;;2.60;;
76550;SDS011;65393;53.160;18.170;2023-01-01T04:39:06;5.70;;;2.40;;
76550;SDS011;65393;53.160;18.170;2023-01-01T04:41:33;6.40;;;2.20;;
76550;SDS011;65393;53.160;18.170;2023-01-01T04:44:00;7.00;;;2.30;;
76550;SDS011;65393;53.160;18.170;2023-01-01T04:46:27;3.80;;;1.70;;
76550;SDS011;65393;53.160;18.170;2023-01-01T04:48:54;5.00;;;2.40;;
76550;SDS011;65393;53.160;18.170;2023-01-01T04:51:21;6.30;;;2.70;;
76550;SDS011;65393;53.160;18.170;2023-01-01T04:53:47;4.90;;;2.50;;
76550;SDS011;65393;53.160;18.170;2023-01-01T04:56:15;4.70;;;2.00;;
76550;SDS011;65393;53.160;18.170;2023-01-01T04:58:44;6.60;;;2.80;;
76550;SDS011;65393;53.160;18.170;2023-01-01T05:01:45;7.10;;;2.60;;
76550;SDS011;65393;53.160;18.170;2023-01-01T05:04:05;6.20;;;2.10;;
76550;SDS011;65393;53.160;18.170;2023-01-01T05:06:31;5.70;;;2.50;;
76550;SDS011;65393;53.160;18.170;2023-01-01T05:08:58;4.30;;;2.40;;
76550;SDS011;65393;53.160;18.170;2023-01-01T05:11:27;5.60;;;2.80;;
76550;SDS011;65393;53.160;18.170;2023-01-01T05:13:56;7.50;;;2.40;;
76550;SDS011;65393;53.160;18.170;2023-01-01T05:16:26;5.10;;;2.40;;
76550;SDS011;65393;53.160;18.170;2023-01-01T05:18:57;7.00;;;3.00;;
76550;SDS011;65393;53.160;18.170;2023-01-01T05:21:26;7.20;;;2.20;;
76550;SDS011;65393;53.160;18.170;2023-01-01T05:23:59;4.20;;;2.30;;
76550;SDS011;65393;53.160;18.170;2023-01-01T05:26:31;8.80;;;2.90;;
76550;SDS011;65393;53.160;18.170;2023-01-01T05:29:00;6.00;;;2.80;;
76550;SDS011;65393;53.160;18.170;2023-01-01T05:31:28;5.80;;;2.40;;
76550;SDS011;65393;53.160;18.170;2023-01-01T05:33:58;6.50;;;2.70;;
76550;SDS011;65393;53.160;18.170;2023-01-01T05:36:26;8.20;;;2.40;;
76550;SDS011;65393;53.160;18.170;2023-01-01T05:38:55;4.30;;;2.40;;
76550;SDS011;65393;53.160;18.170;2023-01-01T05:41:22;6.60;;;2.50;;
76550;SDS011;65393;53.160;18.170;2023-01-01T05:43:49;5.90;;;2.10;;
76550;SDS011;65393;53.160;18.170;2023-01-01T05:46:18;3.60;;;2.20;;
76550;SDS011;65393;53.160;18.170;2023-01-01T05:48:47;5.30;;;2.10;;
76550;SDS011;65393;53.160;18.170;2023-01-01T05:51:18;4.20;;;2.00;;
76550;SDS011;65393;53.160;18.170;2023-01-01T05:53:46;4.20;;;2.00;;
76550;SDS011;65393;53.160;18.170;2023-01-01T05:56:14;4.80;;;2.00;;
76550;SDS011;65393;53.160;18.170;2023-01-01T05:58:42;4.60;;;2.30;;
76550;SDS011;65393;53.160;18.170;2023-01-01T06:01:13;8.60;;;2.10;;
76550;SDS011;65393;53.160;18.170;2023-01-01T06:03:45;8.20;;;2.30;;
76550;SDS011;65393;53.160;18.170;2023-01-01T06:06:18;5.50;;;2.20;;
76550;SDS011;65393;53.160;18.170;2023-01-01T06:08:51;5.30;;;2.60;;
76550;SDS011;65393;53.160;18.170;2023-01-01T06:11:19;8.10;;;2.00;;
76550;SDS011;65393;53.160;18.170;2023-01-01T06:13:46;4.90;;;2.20;;
76550;SDS011;65393;53.160;18.170;2023-01-01T06:16:14;5.70;;;1.90;;
76550;SDS011;65393;53.160;18.170;2023-01-01T06:18:40;5.90;;;2.10;;
76550;SDS011;65393;53.160;18.170;2023-01-01T06:21:11;5.60;;;2.00;;
76550;SDS011;65393;53.160;18.170;2023-01-01T06:23:39;5.10;;;2.00;;
76550;SDS011;65393;53.160;18.170;2023-01-01T06:26:08;4.10;;;2.30;;
76550;SDS011;65393;53.160;18.170;2023-01-01T06:28:37;6.80;;;2.40;;
76550;SDS011;65393;53.160;18.170;2023-01-01T06:31:05;4.50;;;1.90;;
76550;SDS011;65393;53.160;18.170;2023-01-01T06:33:33;2.90;;;1.60;;
76550;SDS011;65393;53.160;18.170;2023-01-01T06:36:02;4.50;;;2.00;;
76550;SDS011;65393;53.160;18.170;2023-01-01T06:38:30;4.10;;;2.10;;
76550;SDS011;65393;53.160;18.170;2023-01-01T06:40:59;4.70;;;2.00;;
76550;SDS011;65393;53.160;18.170;2023-01-01T06:43:31;10.00;;;2.40;;
76550;SDS011;65393;53.160;18.170;2023-01-01T06:48:34;3.30;;;1.70;;
76550;SDS011;65393;53.160;18.170;2023-01-01T06:51:09;4.00;;;1.90;;
76550;SDS011;65393;53.160;18.170;2023-01-01T06:53:38;5.90;;;2.10;;
76550;SDS011;65393;53.160;18.170;2023-01-01T06:56:05;4.30;;;2.20;;
76550;SDS011;65393;53.160;18.170;2023-01-01T06:58:32;6.60;;;2.20;;
76550;SDS011;65393;53.160;18.170;2023-01-01T07:01:06;8.60;;;2.40;;
76550;SDS011;65393;53.160;18.170;2023-01-01T07:03:39;6.20;;;1.80;;
76550;SDS011;65393;53.160;18.170;2023-01-01T07:06:07;6.00;;;2.10;;
76550;SDS011;65393;53.160;18.170;2023-01-01T07:08:34;8.50;;;2.30;;
76550;SDS011;65393;53.160;18.170;2023-01-01T07:11:02;4.80;;;2.40;;
76550;SDS011;65393;53.160;18.170;2023-01-01T07:13:29;4.50;;;2.20;;
76550;SDS011;65393;53.160;18.170;2023-01-01T07:15:57;7.50;;;3.70;;
76550;SDS011;65393;53.160;18.170;2023-01-01T07:18:24;6.00;;;2.30;;
76550;SDS011;65393;53.160;18.170;2023-01-01T07:20:52;6.40;;;2.20;;
76550;SDS011;65393;53.160;18.170;2023-01-01T07:23:20;5.60;;;2.20;;
76550;SDS011;65393;53.160;18.170;2023-01-01T07:25:48;7.00;;;2.50;;
76550;SDS011;65393;53.160;18.170;2023-01-01T07:28:16;7.30;;;2.60;;
76550;SDS011;65393;53.160;18.170;2023-01-01T07:30:43;4.40;;;2.50;;
76550;SDS011;65393;53.160;18.170;2023-01-01T07:33:13;8.30;;;2.40;;
76550;SDS011;65393;53.160;18.170;2023-01-01T07:35:42;6.60;;;2.40;;
76550;SDS011;65393;53.160;18.170;2023-01-01T07:38:12;7.20;;;2.00;;
76550;SDS011;65393;53.160;18.170;2023-01-01T07:40:40;4.30;;;2.20;;
76550;SDS011;65393;53.160;18.170;2023-01-01T07:43:09;5.20;;;1.90;;
76550;SDS011;65393;53.160;18.170;2023-01-01T07:45:37;4.90;;;2.20;;
76550;SDS011;65393;53.160;18.170;2023-01-01T07:48:04;7.00;;;2.50;;
76550;SDS011;65393;53.160;18.170;2023-01-01T07:50:32;6.80;;;2.20;;
76550;SDS011;65393;53.160;18.170;2023-01-01T07:52:59;4.00;;;2.20;;
76550;SDS011;65393;53.160;18.170;2023-01-01T07:55:26;6.00;;;2.00;;
76550;SDS011;65393;53.160;18.170;2023-01-01T07:57:52;6.30;;;2.40;;
76550;SDS011;65393;53.160;18.170;2023-01-01T08:00:19;7.10;;;2.50;;
76550;SDS011;65393;53.160;18.170;2023-01-01T08:02:47;5.30;;;2.30;;
76550;SDS011;65393;53.160;18.170;2023-01-01T08:05:14;5.70;;;2.40;;
76550;SDS011;65393;53.160;18.170;2023-01-01T08:07:45;5.70;;;1.90;;
76550;SDS011;65393;53.160;18.170;2023-01-01T08:10:16;5.40;;;2.30;;
76550;SDS011;65393;53.160;18.170;2023-01-01T08:12:45;5.40;;;2.30;;
76550;SDS011;65393;53.160;18.170;2023-01-01T08:15:14;6.70;;;1.90;;
76550;SDS011;65393;53.160;18.170;2023-01-01T08:17:41;7.90;;;2.00;;
76550;SDS011;65393;53.160;18.170;2023-01-01T08:20:08;7.30;;;2.00;;
76550;SDS011;65393;53.160;18.170;2023-01-01T08:22:36;9.50;;;2.70;;
76550;SDS011;65393;53.160;18.170;2023-01-01T08:25:03;7.50;;;2.60;;
76550;SDS011;65393;53.160;18.170;2023-01-01T08:27:30;4.70;;;1.70;;
76550;SDS011;65393;53.160;18.170;2023-01-01T08:29:56;6.20;;;2.20;;
76550;SDS011;65393;53.160;18.170;2023-01-01T08:32:24;7.20;;;2.60;;
76550;SDS011;65393;53.160;18.170;2023-01-01T08:34:51;5.50;;;2.20;;
76550;SDS011;65393;53.160;18.170;2023-01-01T08:37:17;9.30;;;2.40;;
76550;SDS011;65393;53.160;18.170;2023-01-01T08:39:50;8.20;;;2.30;;
76550;SDS011;65393;53.160;18.170;2023-01-01T08:42:17;7.20;;;2.40;;
76550;SDS011;65393;53.160;18.170;2023-01-01T08:44:44;7.10;;;2.60;;
76550;SDS011;65393;53.160;18.170;2023-01-01T08:47:19;8.20;;;2.40;;
76550;SDS011;65393;53.160;18.170;2023-01-01T08:49:47;5.50;;;2.30;;
76550;SDS011;65393;53.160;18.170;2023-01-01T08:52:15;6.50;;;2.20;;
76550;SDS011;65393;53.160;18.170;2023-01-01T08:54:43;6.80;;;1.90;;
76550;SDS011;65393;53.160;18.170;2023-01-01T08:57:10;5.40;;;2.20;;
76550;SDS011;65393;53.160;18.170;2023-01-01T08:59:37;4.70;;;2.00;;
76550;SDS011;65393;53.160;18.170;2023-01-01T09:02:04;8.70;;;2.40;;
76550;SDS011;65393;53.160;18.170;2023-01-01T09:04:31;7.10;;;2.20;;
76550;SDS011;65393;53.160;18.170;2023-01-01T09:06:58;7.00;;;1.90;;
76550;SDS011;65393;53.160;18.170;2023-01-01T09:09:25;5.70;;;1.90;;
76550;SDS011;65393;53.160;18.170;2023-01-01T09:11:55;5.10;;;1.80;;
76550;SDS011;65393;53.160;18.170;2023-01-01T09:14:29;6.10;;;2.40;;
76550;SDS011;65393;53.160;18.170;2023-01-01T09:16:56;9.50;;;2.30;;
76550;SDS011;65393;53.160;18.170;2023-01-01T09:19:23;8.70;;;2.20;;
76550;SDS011;65393;53.160;18.170;2023-01-01T09:21:50;4.50;;;2.30;;
76550;SDS011;65393;53.160;18.170;2023-01-01T09:24:17;5.10;;;2.40;;
76550;SDS011;65393;53.160;18.170;2023-01-01T09:26:44;5.80;;;1.90;;
76550;SDS011;65393;53.160;18.170;2023-01-01T09:29:11;3.80;;;2.10;;
76550;SDS011;65393;53.160;18.170;2023-01-01T09:31:38;5.90;;;2.30;;
76550;SDS011;65393;53.160;18.170;2023-01-01T09:34:04;6.30;;;1.90;;
76550;SDS011;65393;53.160;18.170;2023-01-01T09:36:31;3.90;;;1.90;;
76550;SDS011;65393;53.160;18.170;2023-01-01T09:38:59;7.30;;;2.20;;
76550;SDS011;65393;53.160;18.170;2023-01-01T09:46:57;7.90;;;2.50;;
76550;SDS011;65393;53.160;18.170;2023-01-01T09:49:32;8.60;;;2.20;;
76550;SDS011;65393;53.160;18.170;2023-01-01T09:52:02;8.00;;;2.20;;
76550;SDS011;65393;53.160;18.170;2023-01-01T09:54:32;6.20;;;2.10;;
76550;SDS011;65393;53.160;18.170;2023-01-01T09:57:04;6.40;;;1.90;;
76550;SDS011;65393;53.160;18.170;2023-01-01T09:59:34;8.40;;;2.00;;
76550;SDS011;65393;53.160;18.170;2023-01-01T10:07:33;5.40;;;1.70;;
76550;SDS011;65393;53.160;18.170;2023-01-01T10:12:55;5.30;;;1.90;;
76550;SDS011;65393;53.160;18.170;2023-01-01T10:15:35;5.20;;;2.00;;
76550;SDS011;65393;53.160;18.170;2023-01-01T10:18:08;5.20;;;1.90;;
76550;SDS011;65393;53.160;18.170;2023-01-01T10:20:43;5.10;;;1.80;;
76550;SDS011;65393;53.160;18.170;2023-01-01T10:23:24;6.80;;;1.90;;
76550;SDS011;65393;53.160;18.170;2023-01-01T10:25:54;6.40;;;2.10;;
76550;SDS011;65393;53.160;18.170;2023-01-01T10:28:29;10.60;;;2.30;;
76550;SDS011;65393;53.160;18.170;2023-01-01T10:31:10;7.30;;;2.40;;
76550;SDS011;65393;53.160;18.170;2023-01-01T10:33:41;5.70;;;2.00;;
76550;SDS011;65393;53.160;18.170;2023-01-01T10:36:10;3.50;;;1.60;;
76550;SDS011;65393;53.160;18.170;2023-01-01T10:38:39;7.10;;;1.80;;
76550;SDS011;65393;53.160;18.170;2023-01-01T10:41:07;4.60;;;1.90;;
76550;SDS011;65393;53.160;18.170;2023-01-01T10:43:36;6.00;;;1.80;;
76550;SDS011;65393;53.160;18.170;2023-01-01T10:46:03;5.20;;;1.90;;
76550;SDS011;65393;53.160;18.170;2023-01-01T10:48:33;4.50;;;1.70;;
76550;SDS011;65393;53.160;18.170;2023-01-01T10:51:05;5.70;;;1.90;;
76550;SDS011;65393;53.160;18.170;2023-01-01T10:56:06;4.40;;;2.10;;
76550;SDS011;65393;53.160;18.170;2023-01-01T11:01:05;3.60;;;2.10;;
76550;SDS011;65393;53.160;18.170;2023-01-01T11:06:21;7.10;;;1.80;;
76550;SDS011;65393;53.160;18.170;2023-01-01T11:08:51;4.90;;;2.00;;
76550;SDS011;65393;53.160;18.170;2023-01-01T11:11:21;5.00;;;2.00;;
76550;SDS011;65393;53.160;18.170;2023-01-01T11:13:53;4.30;;;1.80;;
76550;SDS011;65393;53.160;18.170;2023-01-01T11:16:23;3.40;;;1.60;;
76550;SDS011;65393;53.160;18.170;2023-01-01T11:18:51;7.00;;;2.20;;
76550;SDS011;65393;53.160;18.170;2023-01-01T11:21:25;3.90;;;2.00;;
76550;SDS011;65393;53.160;18.170;2023-01-01T11:24:06;5.00;;;2.00;;
76550;SDS011;65393;53.160;18.170;2023-01-01T11:26:41;3.40;;;1.80;;
76550;SDS011;65393;53.160;18.170;2023-01-01T11:31:41;5.70;;;2.00;;
76550;SDS011;65393;53.160;18.170;2023-01-01T11:39:42;8.00;;;2.10;;
76550;SDS011;65393;53.160;18.170;2023-01-01T11:42:25;7.20;;;1.90;;
76550;SDS011;65393;53.160;18.170;2023-01-01T11:44:58;4.50;;;2.00;;
76550;SDS011;65393;53.160;18.170;2023-01-01T11:47:29;3.70;;;1.50;;
76550;SDS011;65393;53.160;18.170;2023-01-01T11:50:05;5.00;;;1.80;;
76550;SDS011;65393;53.160;18.170;2023-01-01T11:52:40;6.20;;;2.40;;
76550;SDS011;65393;53.160;18.170;2023-01-01T11:57:49;3.90;;;2.00;;
76550;SDS011;65393;53.160;18.170;2023-01-01T12:00:35;7.20;;;1.80;;
76550;SDS011;65393;53.160;18.170;2023-01-01T12:03:24;4.10;;;1.80;;
76550;SDS011;65393;53.160;18.170;2023-01-01T12:08:38;2.90;;;1.80;;
76550;SDS011;65393;53.160;18.170;2023-01-01T12:13:55;4.80;;;2.10;;
76550;SDS011;65393;53.160;18.170;2023-01-01T12:16:44;9.00;;;2.70;;
76550;SDS011;65393;53.160;18.170;2023-01-01T12:19:29;5.30;;;2.20;;
76550;SDS011;65393;53.160;18.170;2023-01-01T12:22:00;5.00;;;2.10;;
76550;SDS011;65393;53.160;18.170;2023-01-01T12:24:31;5.00;;;1.80;;
76550;SDS011;65393;53.160;18.170;2023-01-01T12:30:20;6.10;;;2.30;;
76550;SDS011;65393;53.160;18.170;2023-01-01T12:42:16;4.50;;;1.90;;
76550;SDS011;65393;53.160;18.170;2023-01-01T12:44:29;5.40;;;2.40;;
76550;SDS011;65393;53.160;18.170;2023-01-01T12:49:49;3.70;;;2.00;;
76550;SDS011;65393;53.160;18.170;2023-01-01T12:55:38;7.30;;;2.80;;
76550;SDS011;65393;53.160;18.170;2023-01-01T12:58:35;7.40;;;2.30;;
76550;SDS011;65393;53.160;18.170;2023-01-01T13:01:11;4.70;;;2.00;;
76550;SDS011;65393;53.160;18.170;2023-01-01T13:03:46;5.80;;;2.30;;
76550;SDS011;65393;53.160;18.170;2023-01-01T13:06:18;6.50;;;2.10;;
76550;SDS011;65393;53.160;18.170;2023-01-01T13:08:50;6.30;;;2.60;;
76550;SDS011;65393;53.160;18.170;2023-01-01T13:11:22;5.10;;;2.30;;
76550;SDS011;65393;53.160;18.170;2023-01-01T13:13:52;6.50;;;2.40;;
76550;SDS011;65393;53.160;18.170;2023-01-01T13:16:39;6.10;;;2.30;;
76550;SDS011;65393;53.160;18.170;2023-01-01T13:46:31;4.70;;;2.10;;
76550;SDS011;65393;53.160;18.170;2023-01-01T13:49:17;3.60;;;2.00;;
76550;SDS011;65393;53.160;18.170;2023-01-01T14:05:35;4.70;;;2.20;;
76550;SDS011;65393;53.160;18.170;2023-01-01T14:08:05;4.10;;;2.30;;
76550;SDS011;65393;53.160;18.170;2023-01-01T14:10:35;4.80;;;2.30;;
76550;SDS011;65393;53.160;18.170;2023-01-01T14:15:33;6.70;;;2.40;;
76550;SDS011;65393;53.160;18.170;2023-01-01T14:18:21;6.30;;;2.50;;
76550;SDS011;65393;53.160;18.170;2023-01-01T14:20:56;5.80;;;2.00;;
76550;SDS011;65393;53.160;18.170;2023-01-01T14:25:57;6.40;;;2.40;;
76550;SDS011;65393;53.160;18.170;2023-01-01T14:28:29;5.60;;;2.60;;
76550;SDS011;65393;53.160;18.170;2023-01-01T14:30:58;7.60;;;2.50;;
76550;SDS011;65393;53.160;18.170;2023-01-01T14:33:31;4.30;;;2.30;;
76550;SDS011;65393;53.160;18.170;2023-01-01T14:36:00;5.80;;;2.20;;
76550;SDS011;65393;53.160;18.170;2023-01-01T14:38:33;4.70;;;2.50;;
76550;SDS011;65393;53.160;18.170;2023-01-01T14:43:54;6.60;;;2.50;;
76550;SDS011;65393;53.160;18.170;2023-01-01T14:46:23;5.00;;;2.00;;
76550;SDS011;65393;53.160;18.170;2023-01-01T14:48:53;4.20;;;2.20;;
76550;SDS011;65393;53.160;18.170;2023-01-01T14:51:26;6.80;;;2.30;;
76550;SDS011;65393;53.160;18.170;2023-01-01T14:53:57;6.20;;;2.60;;
76550;SDS011;65393;53.160;18.170;2023-01-01T14:56:33;5.40;;;2.40;;
76550;SDS011;65393;53.160;18.170;2023-01-01T14:59:09;3.90;;;2.40;;
76550;SDS011;65393;53.160;18.170;2023-01-01T15:01:41;4.90;;;2.80;;
76550;SDS011;65393;53.160;18.170;2023-01-01T15:04:18;7.10;;;2.70;;
76550;SDS011;65393;53.160;18.170;2023-01-01T15:06:55;7.90;;;3.00;;
76550;SDS011;65393;53.160;18.170;2023-01-01T15:09:27;6.40;;;3.10;;
76550;SDS011;65393;53.160;18.170;2023-01-01T15:11:56;8.40;;;3.20;;
76550;SDS011;65393;53.160;18.170;2023-01-01T15:14:35;6.50;;;2.60;;
76550;SDS011;65393;53.160;18.170;2023-01-01T15:19:39;5.60;;;2.70;;
76550;SDS011;65393;53.160;18.170;2023-01-01T15:22:11;5.50;;;3.20;;
76550;SDS011;65393;53.160;18.170;2023-01-01T15:24:47;9.30;;;3.40;;
76550;SDS011;65393;53.160;18.170;2023-01-01T15:27:24;7.70;;;3.20;;
76550;SDS011;65393;53.160;18.170;2023-01-01T15:29:54;10.20;;;3.10;;
76550;SDS011;65393;53.160;18.170;2023-01-01T15:32:23;7.30;;;3.20;;
76550;SDS011;65393;53.160;18.170;2023-01-01T15:35:02;7.50;;;3.20;;
76550;SDS011;65393;53.160;18.170;2023-01-01T15:47:51;10.60;;;4.70;;
76550;SDS011;65393;53.160;18.170;2023-01-01T15:52:57;6.40;;;3.50;;
76550;SDS011;65393;53.160;18.170;2023-01-01T15:55:26;8.30;;;4.00;;
76550;SDS011;65393;53.160;18.170;2023-01-01T16:00:27;10.20;;;3.70;;
76550;SDS011;65393;53.160;18.170;2023-01-01T16:02:59;10.20;;;4.00;;
76550;SDS011;65393;53.160;18.170;2023-01-01T16:05:35;9.40;;;4.00;;
76550;SDS011;65393;53.160;18.170;2023-01-01T16:08:02;6.10;;;3.30;;
76550;SDS011;65393;53.160;18.170;2023-01-01T16:10:31;6.40;;;3.90;;
76550;SDS011;65393;53.160;18.170;2023-01-01T16:12:57;6.10;;;3.60;;
76550;SDS011;65393;53.160;18.170;2023-01-01T16:15:24;10.90;;;3.20;;
76550;SDS011;65393;53.160;18.170;2023-01-01T16:17:51;6.80;;;3.60;;
76550;SDS011;65393;53.160;18.170;2023-01-01T16:20:19;6.40;;;3.20;;
76550;SDS011;65393;53.160;18.170;2023-01-01T16:22:47;11.60;;;3.80;;
76550;SDS011;65393;53.160;18.170;2023-01-01T16:25:15;5.70;;;2.70;;
76550;SDS011;65393;53.160;18.170;2023-01-01T16:27:46;7.60;;;3.50;;
76550;SDS011;65393;53.160;18.170;2023-01-01T16:30:14;7.30;;;3.40;;
76550;SDS011;65393;53.160;18.170;2023-01-01T16:32:41;7.40;;;3.40;;
76550;SDS011;65393;53.160;18.170;2023-01-01T16:35:11;7.80;;;3.20;;
76550;SDS011;65393;53.160;18.170;2023-01-01T16:37:39;9.00;;;3.70;;
76550;SDS011;65393;53.160;18.170;2023-01-01T16:40:06;11.70;;;3.80;;
76550;SDS011;65393;53.160;18.170;2023-01-01T16:42:33;8.00;;;3.60;;
76550;SDS011;65393;53.160;18.170;2023-01-01T16:45:00;8.50;;;3.30;;
76550;SDS011;65393;53.160;18.170;2023-01-01T16:47:27;10.00;;;3.40;;
76550;SDS011;65393;53.160;18.170;2023-01-01T16:49:53;9.50;;;3.50;;
76550;SDS011;65393;53.160;18.170;2023-01-01T16:52:20;6.90;;;3.60;;
76550;SDS011;65393;53.160;18.170;2023-01-01T16:54:47;6.30;;;2.60;;
76550;SDS011;65393;53.160;18.170;2023-01-01T16:57:13;4.90;;;3.00;;
76550;SDS011;65393;53.160;18.170;2023-01-01T16:59:41;7.20;;;3.10;;
76550;SDS011;65393;53.160;18.170;2023-01-01T17:02:08;7.30;;;3.50;;
76550;SDS011;65393;53.160;18.170;2023-01-01T17:04:36;8.50;;;2.80;;
76550;SDS011;65393;53.160;18.170;2023-01-01T17:07:03;7.70;;;2.80;;
76550;SDS011;65393;53.160;18.170;2023-01-01T17:09:29;9.10;;;3.80;;
76550;SDS011;65393;53.160;18.170;2023-01-01T17:11:56;6.30;;;3.30;;
76550;SDS011;65393;53.160;18.170;2023-01-01T17:14:22;8.70;;;3.20;;
76550;SDS011;65393;53.160;18.170;2023-01-01T17:16:49;6.90;;;3.30;;
76550;SDS011;65393;53.160;18.170;2023-01-01T17:19:18;7.20;;;3.00;;
76550;SDS011;65393;53.160;18.170;2023-01-01T17:21:48;7.10;;;3.50;;
76550;SDS011;65393;53.160;18.170;2023-01-01T17:24:15;8.50;;;4.80;;
76550;SDS011;65393;53.160;18.170;2023-01-01T17:26:43;8.40;;;3.60;;
76550;SDS011;65393;53.160;18.170;2023-01-01T17:29:11;8.30;;;4.10;;
76550;SDS011;65393;53.160;18.170;2023-01-01T17:31:37;8.40;;;3.40;;